createdAt,value
2019-05-06T00:00:06.639Z,994.12
2019-05-06T00:01:06.627Z,994.04
2019-05-06T00:02:06.616Z,994.08
2019-05-06T00:03:06.647Z,994.02
2019-05-06T00:04:06.615Z,994.07
2019-05-06T00:05:06.588Z,994.04
2019-05-06T00:06:06.574Z,994.04
2019-05-06T00:07:06.573Z,994.00
2019-05-06T00:08:06.554Z,994.05
2019-05-06T00:09:06.587Z,994.06
2019-05-06T00:10:06.546Z,994.07
2019-05-06T00:11:06.525Z,994.03
2019-05-06T00:12:06.511Z,994.04
2019-05-06T00:13:06.499Z,994.05
2019-05-06T00:14:06.504Z,994.05
2019-05-06T00:15:06.519Z,994.09
2019-05-06T00:16:06.473Z,994.16
2019-05-06T00:17:06.459Z,994.05
2019-05-06T00:18:06.450Z,994.05
2019-05-06T00:19:06.437Z,994.10
2019-05-06T00:20:06.470Z,994.06
2019-05-06T00:21:06.454Z,994.01
2019-05-06T00:22:06.409Z,994.06
2019-05-06T00:23:06.396Z,994.05
2019-05-06T00:24:06.384Z,994.06
2019-05-06T00:25:06.382Z,994.04
2019-05-06T00:26:06.364Z,993.98
2019-05-06T00:27:06.389Z,993.97
2019-05-06T00:28:06.344Z,993.99
2019-05-06T00:29:06.335Z,993.96
2019-05-06T00:30:06.332Z,993.95
2019-05-06T00:31:12.834Z,993.96
2019-05-06T00:32:07.301Z,993.99
2019-05-06T00:33:06.321Z,993.95
2019-05-06T00:34:06.277Z,994.00
2019-05-06T00:35:06.281Z,994.05
2019-05-06T00:36:06.258Z,994.00
2019-05-06T00:37:06.246Z,994.05
2019-05-06T00:38:06.249Z,994.09
2019-05-06T00:39:06.266Z,994.05
2019-05-06T00:40:06.225Z,994.08
2019-05-06T00:41:06.206Z,994.15
2019-05-06T00:42:06.196Z,994.13
2019-05-06T00:43:06.191Z,994.11
2019-05-06T00:44:06.176Z,994.16
2019-05-06T00:45:06.203Z,994.12
2019-05-06T00:46:06.157Z,994.19
2019-05-06T00:47:06.147Z,994.14
2019-05-06T00:48:06.131Z,994.19
2019-05-06T00:49:06.126Z,994.19
2019-05-06T00:50:06.170Z,994.17
2019-05-06T00:51:06.102Z,994.21
2019-05-06T00:52:06.088Z,994.26
2019-05-06T00:53:06.083Z,994.24
2019-05-06T00:54:06.068Z,994.21
2019-05-06T00:55:06.071Z,994.23
2019-05-06T00:56:06.095Z,994.17
2019-05-06T00:57:06.048Z,994.16
2019-05-06T00:58:06.049Z,994.32
2019-05-06T00:59:06.041Z,994.26
2019-05-06T01:00:06.055Z,994.29
2019-05-06T01:01:05.995Z,994.25
2019-05-06T01:02:06.073Z,994.30
2019-05-06T01:03:05.973Z,994.21
2019-05-06T01:04:05.966Z,994.27
2019-05-06T01:05:05.962Z,994.27
2019-05-06T01:06:05.947Z,994.27
2019-05-06T01:07:05.938Z,994.20
2019-05-06T01:08:05.968Z,994.27
2019-05-06T01:09:05.910Z,994.18
2019-05-06T01:10:05.934Z,994.17
2019-05-06T01:11:05.889Z,994.24
2019-05-06T01:12:05.879Z,994.23
2019-05-06T01:13:05.879Z,994.25
2019-05-06T01:14:05.902Z,994.21
2019-05-06T01:15:05.845Z,994.21
2019-05-06T01:16:05.848Z,994.23
2019-05-06T01:17:05.832Z,994.21
2019-05-06T01:18:05.819Z,994.26
2019-05-06T01:19:05.810Z,994.21
2019-05-06T01:20:05.846Z,994.16
2019-05-06T01:21:05.793Z,994.22
2019-05-06T01:22:05.772Z,994.21
2019-05-06T01:23:05.763Z,994.20
2019-05-06T01:24:05.751Z,994.25
2019-05-06T01:25:05.740Z,994.20
2019-05-06T01:26:05.789Z,994.18
2019-05-06T01:27:05.723Z,994.24
2019-05-06T01:28:05.708Z,994.21
2019-05-06T01:29:05.699Z,994.26
2019-05-06T01:30:05.690Z,994.23
2019-05-06T01:31:05.686Z,994.30
2019-05-06T01:32:05.706Z,994.26
2019-05-06T01:33:05.656Z,994.25
2019-05-06T01:34:05.644Z,994.23
2019-05-06T01:35:05.636Z,994.34
2019-05-06T01:36:05.635Z,994.33
2019-05-06T01:37:05.614Z,994.28
2019-05-06T01:38:05.625Z,994.36
2019-05-06T01:39:05.592Z,994.34
2019-05-06T01:40:05.582Z,994.29
2019-05-06T01:41:05.587Z,994.28
2019-05-06T01:42:05.560Z,994.26
2019-05-06T01:43:05.554Z,994.35
2019-05-06T01:44:05.562Z,994.35
2019-05-06T01:45:05.529Z,994.42
2019-05-06T01:46:05.530Z,994.33
2019-05-06T01:47:05.508Z,994.35
2019-05-06T01:48:05.497Z,994.35
2019-05-06T01:49:05.487Z,994.36
2019-05-06T01:50:05.509Z,994.33
2019-05-06T01:51:05.477Z,994.35
2019-05-06T01:52:05.454Z,994.34
2019-05-06T01:53:05.447Z,994.33
2019-05-06T01:54:05.436Z,994.41
2019-05-06T01:55:05.423Z,994.33
2019-05-06T01:56:05.463Z,994.33
2019-05-06T01:57:05.404Z,994.40
2019-05-06T01:58:05.391Z,994.35
2019-05-06T01:59:05.381Z,994.39
2019-05-06T02:00:05.383Z,994.41
2019-05-06T02:01:05.370Z,994.40
2019-05-06T02:02:05.380Z,994.46
2019-05-06T02:03:05.339Z,994.49
2019-05-06T02:04:05.329Z,994.48
2019-05-06T02:05:05.324Z,994.43
2019-05-06T02:06:05.334Z,994.42
2019-05-06T02:07:05.299Z,994.44
2019-05-06T02:08:05.338Z,994.47
2019-05-06T02:09:05.277Z,994.41
2019-05-06T02:10:05.264Z,994.46
2019-05-06T02:11:05.260Z,994.40
2019-05-06T02:12:05.259Z,994.46
2019-05-06T02:13:05.234Z,994.43
2019-05-06T02:14:05.265Z,994.47
2019-05-06T02:15:05.212Z,994.51
2019-05-06T02:16:05.203Z,994.47
2019-05-06T02:17:05.208Z,994.51
2019-05-06T02:18:05.191Z,994.49
2019-05-06T02:19:05.170Z,994.53
2019-05-06T02:20:05.197Z,994.56
2019-05-06T02:21:05.572Z,994.55
2019-05-06T02:22:05.148Z,994.50
2019-05-06T02:23:05.150Z,994.55
2019-05-06T02:24:05.118Z,994.61
2019-05-06T02:25:05.138Z,994.59
2019-05-06T02:26:05.096Z,994.56
2019-05-06T02:27:05.099Z,994.60
2019-05-06T02:28:05.098Z,994.62
2019-05-06T02:29:05.081Z,994.61
2019-05-06T02:30:05.697Z,994.59
2019-05-06T02:31:05.453Z,994.62
2019-05-06T02:32:17.061Z,994.58
2019-05-06T02:33:06.032Z,994.56
2019-05-06T02:34:05.341Z,994.61
2019-05-06T02:35:05.424Z,994.54
2019-05-06T02:36:06.616Z,994.61
2019-05-06T02:37:06.343Z,994.57
2019-05-06T02:38:05.189Z,994.55
2019-05-06T02:39:04.965Z,994.60
2019-05-06T02:40:04.961Z,994.54
2019-05-06T02:41:04.947Z,994.57
2019-05-06T02:42:04.987Z,994.55
2019-05-06T02:43:04.919Z,994.55
2019-05-06T02:44:04.918Z,994.55
2019-05-06T02:45:04.896Z,994.58
2019-05-06T02:46:04.888Z,994.64
2019-05-06T02:47:04.887Z,994.63
2019-05-06T02:48:04.912Z,994.66
2019-05-06T02:49:04.856Z,994.66
2019-05-06T02:50:04.935Z,994.67
2019-05-06T02:51:04.839Z,994.67
2019-05-06T02:52:04.834Z,994.72
2019-05-06T02:53:04.815Z,994.74
2019-05-06T02:54:04.834Z,994.71
2019-05-06T02:55:06.447Z,994.72
2019-05-06T02:56:04.835Z,994.68
2019-05-06T02:57:04.787Z,994.73
2019-05-06T02:58:04.767Z,994.68
2019-05-06T02:59:04.750Z,994.65
2019-05-06T03:00:05.393Z,994.63
2019-05-06T03:01:04.737Z,994.70
2019-05-06T03:02:04.727Z,994.65
2019-05-06T03:03:04.711Z,994.71
2019-05-06T03:04:04.924Z,994.67
2019-05-06T03:05:04.721Z,994.65
2019-05-06T03:06:04.807Z,994.65
2019-05-06T03:07:04.679Z,994.64
2019-05-06T03:08:04.692Z,994.66
2019-05-06T03:09:04.663Z,994.62
2019-05-06T03:10:04.640Z,994.64
2019-05-06T03:11:04.660Z,994.66
2019-05-06T03:12:04.672Z,994.64
2019-05-06T03:13:04.603Z,994.64
2019-05-06T03:14:04.601Z,994.66
2019-05-06T03:15:04.587Z,994.65
2019-05-06T03:16:05.760Z,994.66
2019-05-06T03:17:04.566Z,994.70
2019-05-06T03:18:04.594Z,994.66
2019-05-06T03:19:04.548Z,994.70
2019-05-06T03:20:04.656Z,994.70
2019-05-06T03:21:04.523Z,994.67
2019-05-06T03:22:04.511Z,994.72
2019-05-06T03:23:04.526Z,994.68
2019-05-06T03:24:07.389Z,994.61
2019-05-06T03:25:06.910Z,994.69
2019-05-06T03:26:06.513Z,994.64
2019-05-06T03:27:05.006Z,994.67
2019-05-06T03:28:04.536Z,994.68
2019-05-06T03:29:04.438Z,994.68
2019-05-06T03:30:04.640Z,994.71
2019-05-06T03:31:06.640Z,994.69
2019-05-06T03:32:06.980Z,994.65
2019-05-06T03:34:27.854Z,994.66
2019-05-06T03:35:25.297Z,994.74
2019-05-06T03:36:14.897Z,994.68
2019-05-06T03:37:07.583Z,994.66
2019-05-06T03:38:04.351Z,994.69
2019-05-06T03:39:04.333Z,994.73
2019-05-06T03:40:04.321Z,994.68
2019-05-06T03:41:04.325Z,994.71
2019-05-06T03:42:04.901Z,994.69
2019-05-06T03:43:04.308Z,994.69
2019-05-06T03:44:04.283Z,994.72
2019-05-06T03:45:04.543Z,994.71
2019-05-06T03:46:04.717Z,994.67
2019-05-06T03:47:05.760Z,994.71
2019-05-06T03:48:05.934Z,994.77
2019-05-06T03:49:04.226Z,994.77
2019-05-06T03:50:04.866Z,994.78
2019-05-06T03:51:04.376Z,994.75
2019-05-06T03:52:04.221Z,994.75
2019-05-06T03:53:04.235Z,994.79
2019-05-06T03:54:04.253Z,994.78
2019-05-06T03:55:04.348Z,994.86
2019-05-06T03:56:04.153Z,994.80
2019-05-06T03:57:04.154Z,994.76
2019-05-06T03:58:04.196Z,994.83
2019-05-06T03:59:04.121Z,994.78
2019-05-06T04:00:05.033Z,994.77
2019-05-06T04:01:04.134Z,994.82
2019-05-06T04:02:05.168Z,994.82
2019-05-06T04:03:04.089Z,994.80
2019-05-06T04:04:04.091Z,994.86
2019-05-06T04:05:04.402Z,994.91
2019-05-06T04:06:04.685Z,994.83
2019-05-06T04:07:04.069Z,994.84
2019-05-06T04:08:04.197Z,994.84
2019-05-06T04:09:04.017Z,994.82
2019-05-06T04:10:04.212Z,994.85
2019-05-06T04:11:04.041Z,994.93
2019-05-06T04:12:04.002Z,994.93
2019-05-06T04:13:04.370Z,994.94
2019-05-06T04:14:03.970Z,994.93
2019-05-06T04:15:04.479Z,994.91
2019-05-06T04:16:04.111Z,994.92
2019-05-06T04:17:03.998Z,994.94
2019-05-06T04:18:04.189Z,994.84
2019-05-06T04:19:04.313Z,994.97
2019-05-06T04:20:04.244Z,994.92
2019-05-06T04:21:04.294Z,994.92
2019-05-06T04:22:03.979Z,994.93
2019-05-06T04:23:06.359Z,994.96
2019-05-06T04:24:04.422Z,995.00
2019-05-06T04:25:04.284Z,994.95
2019-05-06T04:26:03.859Z,994.94
2019-05-06T04:27:03.829Z,995.03
2019-05-06T04:28:03.837Z,995.02
2019-05-06T04:29:04.174Z,995.02
2019-05-06T04:30:04.907Z,994.90
2019-05-06T04:31:03.795Z,994.97
2019-05-06T04:32:03.779Z,994.96
2019-05-06T04:33:03.762Z,994.99
2019-05-06T04:34:12.809Z,994.97
2019-05-06T04:35:04.867Z,994.98
2019-05-06T04:36:03.955Z,995.01
2019-05-06T04:37:03.777Z,995.01
2019-05-06T04:38:03.712Z,995.06
2019-05-06T04:39:04.378Z,995.06
2019-05-06T04:40:04.513Z,995.06
2019-05-06T04:41:03.715Z,995.06
2019-05-06T04:42:03.716Z,995.10
2019-05-06T04:43:03.879Z,995.09
2019-05-06T04:44:03.661Z,995.09
2019-05-06T04:45:04.703Z,995.10
2019-05-06T04:46:03.725Z,995.07
2019-05-06T04:47:05.465Z,995.09
2019-05-06T04:48:03.763Z,995.09
2019-05-06T04:49:04.157Z,995.10
2019-05-06T04:50:04.785Z,995.11
2019-05-06T04:51:03.711Z,995.10
2019-05-06T04:52:03.814Z,995.10
2019-05-06T04:53:05.115Z,995.09
2019-05-06T04:54:04.254Z,995.14
2019-05-06T04:55:03.885Z,995.12
2019-05-06T04:56:04.187Z,995.12
2019-05-06T04:57:05.102Z,995.08
2019-05-06T04:58:04.144Z,995.17
2019-05-06T04:59:06.209Z,995.18
2019-05-06T05:00:04.267Z,995.12
2019-05-06T05:01:04.271Z,995.16
2019-05-06T05:02:03.464Z,995.13
2019-05-06T05:03:03.455Z,995.17
2019-05-06T05:04:03.761Z,995.17
2019-05-06T05:05:04.331Z,995.21
2019-05-06T05:06:05.903Z,995.19
2019-05-06T05:07:03.594Z,995.21
2019-05-06T05:08:03.422Z,995.23
2019-05-06T05:09:03.402Z,995.24
2019-05-06T05:10:03.694Z,995.21
2019-05-06T05:11:03.695Z,995.27
2019-05-06T05:12:03.402Z,995.28
2019-05-06T05:13:03.678Z,995.32
2019-05-06T05:14:03.356Z,995.33
2019-05-06T05:15:03.403Z,995.34
2019-05-06T05:16:03.333Z,995.34
2019-05-06T05:17:03.308Z,995.32
2019-05-06T05:18:03.315Z,995.37
2019-05-06T05:19:03.338Z,995.37
2019-05-06T05:20:03.290Z,995.40
2019-05-06T05:21:03.272Z,995.38
2019-05-06T05:22:03.272Z,995.38
2019-05-06T05:23:03.263Z,995.40
2019-05-06T05:24:03.290Z,995.43
2019-05-06T05:25:03.618Z,995.42
2019-05-06T05:26:03.210Z,995.47
2019-05-06T05:27:03.259Z,995.49
2019-05-06T05:28:03.194Z,995.48
2019-05-06T05:29:03.232Z,995.45
2019-05-06T05:30:03.166Z,995.41
2019-05-06T05:31:03.220Z,995.48
2019-05-06T05:32:03.147Z,995.42
2019-05-06T05:33:03.134Z,995.43
2019-05-06T05:34:03.134Z,995.47
2019-05-06T05:35:03.118Z,995.47
2019-05-06T05:36:03.117Z,995.47
2019-05-06T05:37:03.174Z,995.52
2019-05-06T05:38:03.180Z,995.51
2019-05-06T05:39:03.451Z,995.55
2019-05-06T05:40:03.262Z,995.53
2019-05-06T05:41:03.230Z,995.52
2019-05-06T05:42:03.052Z,995.52
2019-05-06T05:43:03.085Z,995.52
2019-05-06T05:44:03.031Z,995.52
2019-05-06T05:45:03.009Z,995.54
2019-05-06T05:46:03.076Z,995.56
2019-05-06T05:47:03.535Z,995.55
2019-05-06T05:48:03.051Z,995.49
2019-05-06T05:49:03.031Z,995.52
2019-05-06T05:50:03.262Z,995.50
2019-05-06T05:51:03.395Z,995.50
2019-05-06T05:52:03.549Z,995.54
2019-05-06T05:53:02.927Z,995.52
2019-05-06T05:54:02.958Z,995.53
2019-05-06T05:55:02.977Z,995.49
2019-05-06T05:56:02.908Z,995.53
2019-05-06T05:57:02.885Z,995.58
2019-05-06T05:58:03.276Z,995.56
2019-05-06T05:59:03.446Z,995.58
2019-05-06T06:00:03.894Z,995.54
2019-05-06T06:01:04.169Z,995.63
2019-05-06T06:02:03.867Z,995.61
2019-05-06T06:03:03.029Z,995.59
2019-05-06T06:04:03.243Z,995.59
2019-05-06T06:05:02.841Z,995.53
2019-05-06T06:06:03.217Z,995.52
2019-05-06T06:07:02.920Z,995.60
2019-05-06T06:08:03.039Z,995.58
2019-05-06T06:09:03.194Z,995.56
2019-05-06T06:10:02.860Z,995.58
2019-05-06T06:11:04.319Z,995.55
2019-05-06T06:12:02.842Z,995.58
2019-05-06T06:13:02.710Z,995.57
2019-05-06T06:14:03.030Z,995.52
2019-05-06T06:15:02.710Z,995.58
2019-05-06T06:16:02.920Z,995.61
2019-05-06T06:17:02.669Z,995.60
2019-05-06T06:18:03.081Z,995.54
2019-05-06T06:19:03.220Z,995.51
2019-05-06T06:20:02.772Z,995.51
2019-05-06T06:21:17.040Z,995.51
2019-05-06T06:22:03.620Z,995.49
2019-05-06T06:23:02.993Z,995.47
2019-05-06T06:24:02.871Z,995.51
2019-05-06T06:25:04.158Z,995.47
2019-05-06T06:26:03.875Z,995.47
2019-05-06T06:27:03.119Z,995.52
2019-05-06T06:28:02.748Z,995.48
2019-05-06T06:29:03.283Z,995.54
2019-05-06T06:30:02.587Z,995.45
2019-05-06T06:31:03.049Z,995.46
2019-05-06T06:32:03.204Z,995.48
2019-05-06T06:33:02.683Z,995.47
2019-05-06T06:34:02.487Z,995.51
2019-05-06T06:35:10.609Z,995.44
2019-05-06T06:36:03.468Z,995.47
2019-05-06T06:37:02.706Z,995.40
2019-05-06T06:38:02.787Z,995.47
2019-05-06T06:39:02.434Z,995.36
2019-05-06T06:40:02.758Z,995.41
2019-05-06T06:41:02.852Z,995.43
2019-05-06T06:42:02.860Z,995.55
2019-05-06T06:43:02.411Z,995.56
2019-05-06T06:44:02.423Z,995.48
2019-05-06T06:45:03.460Z,995.44
2019-05-06T06:46:02.572Z,995.50
2019-05-06T06:47:02.346Z,995.43
2019-05-06T06:48:03.126Z,995.37
2019-05-06T06:49:03.274Z,995.46
2019-05-06T06:50:02.784Z,995.45
2019-05-06T06:51:03.436Z,995.48
2019-05-06T06:52:02.925Z,995.48
2019-05-06T06:53:03.063Z,995.49
2019-05-06T06:54:02.640Z,995.38
2019-05-06T06:55:02.629Z,995.46
2019-05-06T06:56:02.262Z,995.45
2019-05-06T06:57:08.740Z,995.54
2019-05-06T06:58:03.233Z,995.44
2019-05-06T06:59:02.660Z,995.40
2019-05-06T07:00:04.082Z,995.44
2019-05-06T07:01:03.125Z,995.41
2019-05-06T07:02:02.764Z,995.32
2019-05-06T07:03:02.699Z,995.35
2019-05-06T07:04:09.621Z,995.40
2019-05-06T07:05:03.168Z,995.39
2019-05-06T07:06:02.392Z,995.32
2019-05-06T07:07:02.941Z,995.42
2019-05-06T07:08:02.321Z,995.36
2019-05-06T07:09:02.703Z,995.39
2019-05-06T07:10:02.748Z,995.39
2019-05-06T07:11:02.297Z,995.45
2019-05-06T07:12:03.494Z,995.48
2019-05-06T07:13:02.894Z,995.44
2019-05-06T07:14:02.638Z,995.36
2019-05-06T07:15:02.502Z,995.37
2019-05-06T07:16:02.922Z,995.36
2019-05-06T07:17:02.484Z,995.41
2019-05-06T07:18:02.503Z,995.50
2019-05-06T07:19:03.072Z,995.58
2019-05-06T07:20:02.869Z,995.57
2019-05-06T07:21:05.207Z,995.63
2019-05-06T07:22:02.914Z,995.57
2019-05-06T07:23:02.024Z,995.48
2019-05-06T07:24:02.214Z,995.53
2019-05-06T07:25:03.755Z,995.46
2019-05-06T07:26:03.017Z,995.44
2019-05-06T07:27:03.005Z,995.52
2019-05-06T07:28:02.984Z,995.44
2019-05-06T07:29:04.027Z,995.51
2019-05-06T07:30:03.214Z,995.54
2019-05-06T07:31:17.892Z,995.52
2019-05-06T07:32:02.881Z,995.44
2019-05-06T07:33:03.695Z,995.45
2019-05-06T07:34:02.577Z,995.48
2019-05-06T07:35:02.393Z,995.29
2019-05-06T07:36:02.227Z,995.30
2019-05-06T07:37:03.476Z,995.36
2019-05-06T07:38:02.366Z,995.38
2019-05-06T07:39:04.135Z,995.31
2019-05-06T07:40:03.099Z,995.33
2019-05-06T07:41:04.574Z,995.31
2019-05-06T07:42:02.455Z,995.38
2019-05-06T07:43:02.304Z,995.38
2019-05-06T07:44:02.187Z,995.36
2019-05-06T07:45:06.498Z,995.45
2019-05-06T07:46:02.744Z,995.48
2019-05-06T07:47:03.543Z,995.48
2019-05-06T07:48:03.571Z,995.56
2019-05-06T07:49:03.315Z,995.49
2019-05-06T07:50:02.439Z,995.42
2019-05-06T07:51:03.058Z,995.41
2019-05-06T07:52:02.935Z,995.45
2019-05-06T07:53:02.376Z,995.53
2019-05-06T07:54:02.842Z,995.63
2019-05-06T07:55:02.515Z,995.64
2019-05-06T07:56:03.658Z,995.56
2019-05-06T07:57:02.417Z,995.49
2019-05-06T07:58:02.918Z,995.59
2019-05-06T07:59:03.210Z,995.52
2019-05-06T08:00:03.362Z,995.48
2019-05-06T08:01:02.636Z,995.38
2019-05-06T08:02:02.237Z,995.33
2019-05-06T08:03:02.517Z,995.31
2019-05-06T08:04:02.573Z,995.34
2019-05-06T08:05:02.563Z,995.34
2019-05-06T08:06:02.684Z,995.36
2019-05-06T08:07:03.160Z,995.33
2019-05-06T08:08:03.605Z,995.36
2019-05-06T08:09:03.181Z,995.35
2019-05-06T08:10:02.164Z,995.39
2019-05-06T08:11:02.736Z,995.37
2019-05-06T08:12:02.786Z,995.38
2019-05-06T08:13:02.767Z,995.41
2019-05-06T08:14:02.208Z,995.43
2019-05-06T08:15:04.989Z,995.49
2019-05-06T08:16:02.203Z,995.44
2019-05-06T08:17:02.232Z,995.42
2019-05-06T08:18:03.520Z,995.43
2019-05-06T08:19:02.780Z,995.37
2019-05-06T08:20:02.501Z,995.40
2019-05-06T08:21:02.490Z,995.34
2019-05-06T08:22:02.756Z,995.38
2019-05-06T08:23:02.094Z,995.32
2019-05-06T08:24:02.726Z,995.36
2019-05-06T08:25:03.453Z,995.30
2019-05-06T08:26:11.558Z,995.33
2019-05-06T08:27:02.923Z,995.25
2019-05-06T08:28:02.308Z,995.25
2019-05-06T08:29:02.791Z,995.27
2019-05-06T08:30:02.399Z,995.38
2019-05-06T08:31:02.362Z,995.25
2019-05-06T08:32:02.974Z,995.22
2019-05-06T08:33:02.264Z,995.21
2019-05-06T08:34:02.694Z,995.27
2019-05-06T08:35:03.311Z,995.29
2019-05-06T08:36:08.913Z,995.27
2019-05-06T08:37:02.482Z,995.32
2019-05-06T08:38:02.378Z,995.31
2019-05-06T08:39:02.836Z,995.29
2019-05-06T08:40:03.146Z,995.25
2019-05-06T08:41:02.730Z,995.30
2019-05-06T08:42:02.658Z,995.28
2019-05-06T08:43:02.214Z,995.25
2019-05-06T08:44:02.587Z,995.26
2019-05-06T08:45:02.212Z,995.25
2019-05-06T08:46:03.166Z,995.27
2019-05-06T08:47:02.537Z,995.17
2019-05-06T08:48:02.969Z,995.15
2019-05-06T08:49:03.091Z,995.17
2019-05-06T08:50:02.452Z,995.10
2019-05-06T08:51:02.848Z,994.90
2019-05-06T08:52:02.403Z,994.97
2019-05-06T08:53:04.826Z,994.98
2019-05-06T08:54:03.036Z,995.03
2019-05-06T08:55:04.327Z,995.06
2019-05-06T08:56:01.969Z,995.00
2019-05-06T08:57:02.572Z,995.21
2019-05-06T08:58:02.905Z,995.33
2019-05-06T08:59:03.028Z,995.24
2019-05-06T09:00:03.353Z,995.35
2019-05-06T09:01:02.862Z,995.20
2019-05-06T09:02:03.059Z,995.30
2019-05-06T09:03:04.033Z,995.22
2019-05-06T09:04:11.412Z,994.99
2019-05-06T09:05:02.879Z,994.98
2019-05-06T09:06:03.003Z,995.03
2019-05-06T09:07:02.793Z,995.06
2019-05-06T09:08:03.234Z,995.03
2019-05-06T09:09:02.457Z,995.13
2019-05-06T09:10:02.555Z,995.12
2019-05-06T09:11:02.955Z,995.00
2019-05-06T09:12:02.716Z,995.06
2019-05-06T09:13:02.000Z,995.06
2019-05-06T09:14:03.203Z,995.18
2019-05-06T09:15:03.280Z,995.04
2019-05-06T09:16:02.495Z,995.02
2019-05-06T09:17:02.820Z,995.13
2019-05-06T09:18:02.817Z,995.13
2019-05-06T09:19:04.336Z,995.19
2019-05-06T09:20:02.631Z,995.22
2019-05-06T09:21:02.852Z,995.21
2019-05-06T09:22:02.538Z,995.21
2019-05-06T09:23:04.235Z,995.39
2019-05-06T09:24:02.238Z,995.20
2019-05-06T09:25:02.428Z,995.16
2019-05-06T09:26:02.680Z,995.18
2019-05-06T09:27:02.829Z,995.15
2019-05-06T09:28:02.575Z,995.20
2019-05-06T09:29:02.246Z,995.13
2019-05-06T09:30:02.931Z,995.40
2019-05-06T09:31:02.239Z,995.42
2019-05-06T09:32:01.822Z,995.39
2019-05-06T09:33:02.515Z,995.39
2019-05-06T09:34:02.695Z,995.33
2019-05-06T09:35:02.819Z,995.25
2019-05-06T09:36:02.815Z,995.20
2019-05-06T09:37:03.377Z,995.23
2019-05-06T09:38:02.218Z,995.26
2019-05-06T09:39:02.309Z,995.24
2019-05-06T09:40:02.761Z,995.18
2019-05-06T09:41:00.483Z,995.17
2019-05-06T09:42:02.225Z,995.19
2019-05-06T09:43:04.464Z,995.04
2019-05-06T09:44:02.940Z,995.01
2019-05-06T09:45:02.298Z,995.06
2019-05-06T09:46:02.398Z,995.04
2019-05-06T09:47:02.430Z,995.00
2019-05-06T09:48:00.422Z,995.04
2019-05-06T09:49:00.397Z,995.05
2019-05-06T09:50:02.739Z,995.08
2019-05-06T09:51:02.766Z,995.08
2019-05-06T09:52:02.507Z,995.07
2019-05-06T09:53:02.400Z,995.13
2019-05-06T09:54:03.824Z,995.12
2019-05-06T09:55:03.276Z,995.17
2019-05-06T09:56:00.398Z,995.17
2019-05-06T09:57:02.281Z,995.17
2019-05-06T09:58:03.204Z,995.18
2019-05-06T09:59:02.182Z,995.19
2019-05-06T10:00:04.466Z,995.13
2019-05-06T10:01:02.521Z,995.15
2019-05-06T10:02:00.254Z,995.14
2019-05-06T10:03:02.971Z,995.14
2019-05-06T10:04:03.286Z,995.13
2019-05-06T10:05:03.329Z,995.17
2019-05-06T10:06:02.530Z,995.11
2019-05-06T10:07:02.512Z,995.13
2019-05-06T10:08:00.187Z,995.17
2019-05-06T10:09:04.298Z,995.14
2019-05-06T10:10:00.165Z,995.21
2019-05-06T10:11:00.209Z,995.23
2019-05-06T10:12:02.074Z,995.24
2019-05-06T10:13:02.545Z,995.18
2019-05-06T10:14:00.139Z,995.15
2019-05-06T10:15:02.945Z,995.17
2019-05-06T10:16:02.739Z,995.19
2019-05-06T10:17:04.180Z,995.20
2019-05-06T10:18:00.079Z,995.18
2019-05-06T10:19:02.440Z,995.20
2019-05-06T10:20:02.607Z,995.20
2019-05-06T10:21:00.045Z,995.21
2019-05-06T10:22:00.067Z,995.21
2019-05-06T10:23:00.027Z,995.19
2019-05-06T10:24:02.201Z,995.15
2019-05-06T10:25:00.066Z,995.22
2019-05-06T10:25:59.993Z,995.14
2019-05-06T10:27:00.055Z,995.17
2019-05-06T10:28:02.594Z,995.23
2019-05-06T10:29:00.414Z,995.16
2019-05-06T10:29:59.956Z,995.14
2019-05-06T10:31:02.023Z,995.14
2019-05-06T10:31:59.935Z,995.13
2019-05-06T10:33:01.997Z,995.06
2019-05-06T10:33:59.919Z,995.11
2019-05-06T10:34:59.931Z,995.14
2019-05-06T10:36:02.458Z,995.13
2019-05-06T10:37:12.645Z,995.08
2019-05-06T10:38:02.836Z,995.08
2019-05-06T10:39:02.118Z,995.08
2019-05-06T10:39:59.844Z,995.08
2019-05-06T10:41:06.551Z,995.10
2019-05-06T10:42:00.869Z,995.10
2019-05-06T10:42:59.820Z,995.14
2019-05-06T10:43:59.809Z,995.06
2019-05-06T10:45:01.675Z,995.05
2019-05-06T10:46:01.838Z,995.05
2019-05-06T10:46:59.767Z,995.07
2019-05-06T10:47:59.792Z,995.05
2019-05-06T10:49:02.439Z,995.07
2019-05-06T10:50:02.103Z,995.06
2019-05-06T10:50:59.731Z,995.01
2019-05-06T10:51:59.712Z,994.96
2019-05-06T10:52:59.714Z,994.99
2019-05-06T10:53:59.723Z,995.03
2019-05-06T10:54:59.684Z,995.01
2019-05-06T10:55:59.677Z,995.06
2019-05-06T10:57:02.140Z,995.03
2019-05-06T10:58:02.399Z,995.04
2019-05-06T10:58:59.647Z,995.06
2019-05-06T10:59:59.660Z,995.01
2019-05-06T11:00:59.614Z,995.03
2019-05-06T11:01:59.604Z,995.01
2019-05-06T11:02:59.593Z,995.01
2019-05-06T11:03:59.593Z,995.07
2019-05-06T11:04:59.576Z,995.01
2019-05-06T11:05:59.597Z,995.06
2019-05-06T11:06:59.550Z,995.05
2019-05-06T11:07:59.541Z,995.04
2019-05-06T11:08:59.542Z,995.15
2019-05-06T11:09:59.527Z,994.98
2019-05-06T11:11:14.018Z,994.93
2019-05-06T11:12:00.507Z,994.92
2019-05-06T11:12:59.486Z,994.92
2019-05-06T11:13:59.512Z,994.89
2019-05-06T11:14:59.479Z,994.96
2019-05-06T11:15:59.460Z,994.88
2019-05-06T11:16:59.444Z,994.88
2019-05-06T11:17:59.448Z,994.88
2019-05-06T11:18:59.422Z,994.87
2019-05-06T11:19:59.424Z,994.86
2019-05-06T11:20:59.402Z,994.82
2019-05-06T11:21:59.393Z,994.79
2019-05-06T11:22:59.379Z,994.84
2019-05-06T11:23:59.385Z,994.78
2019-05-06T11:24:59.385Z,994.79
2019-05-06T11:25:59.346Z,994.88
2019-05-06T11:26:59.339Z,994.85
2019-05-06T11:27:59.326Z,994.89
2019-05-06T11:28:59.315Z,994.83
2019-05-06T11:29:59.314Z,994.86
2019-05-06T11:30:59.325Z,994.84
2019-05-06T11:31:59.281Z,994.81
2019-05-06T11:33:06.172Z,994.85
2019-05-06T11:34:23.687Z,994.83
2019-05-06T11:34:59.252Z,994.88
2019-05-06T11:35:59.270Z,994.92
2019-05-06T11:36:59.243Z,994.90
2019-05-06T11:37:59.247Z,994.85
2019-05-06T11:38:59.236Z,994.85
2019-05-06T11:39:59.241Z,994.87
2019-05-06T11:40:59.185Z,994.90
2019-05-06T11:42:22.836Z,994.91
2019-05-06T11:43:00.212Z,994.85
2019-05-06T11:43:59.157Z,994.86
2019-05-06T11:44:59.155Z,994.89
2019-05-06T11:45:59.130Z,994.89
2019-05-06T11:46:59.138Z,994.94
2019-05-06T11:47:59.111Z,994.85
2019-05-06T11:48:59.112Z,994.91
2019-05-06T11:49:59.102Z,994.89
2019-05-06T11:50:59.077Z,994.78
2019-05-06T11:51:59.066Z,994.80
2019-05-06T11:52:59.054Z,994.82
2019-05-06T11:53:59.046Z,994.85
2019-05-06T11:54:59.057Z,994.82
2019-05-06T11:55:59.048Z,994.77
2019-05-06T11:56:59.015Z,994.85
2019-05-06T11:57:58.999Z,994.79
2019-05-06T11:58:58.993Z,994.78
2019-05-06T11:59:58.987Z,994.78
2019-05-06T12:00:58.966Z,994.82
2019-05-06T12:01:58.977Z,994.82
2019-05-06T12:02:58.945Z,994.75
2019-05-06T12:03:58.964Z,994.78
2019-05-06T12:04:58.932Z,994.78
2019-05-06T12:05:58.954Z,994.80
2019-05-06T12:07:10.388Z,994.80
2019-05-06T12:08:04.591Z,994.79
2019-05-06T12:08:59.877Z,994.82
2019-05-06T12:09:58.877Z,994.84
2019-05-06T12:10:58.861Z,994.78
2019-05-06T12:11:58.852Z,994.84
2019-05-06T12:12:58.836Z,994.76
2019-05-06T12:13:58.832Z,994.78
2019-05-06T12:14:58.857Z,994.74
2019-05-06T12:15:58.804Z,994.77
2019-05-06T12:16:58.793Z,994.79
2019-05-06T12:17:58.782Z,994.71
2019-05-06T12:18:59.948Z,994.78
2019-05-06T12:19:58.763Z,994.77
2019-05-06T12:21:09.060Z,994.76
2019-05-06T12:21:59.754Z,994.78
2019-05-06T12:22:58.759Z,994.82
2019-05-06T12:23:58.719Z,994.76
2019-05-06T12:24:58.709Z,994.78
2019-05-06T12:25:58.707Z,994.76
2019-05-06T12:26:58.686Z,994.73
2019-05-06T12:27:58.686Z,994.71
2019-05-06T12:28:58.690Z,994.75